createdAt,value
2022-11-17T00:01:54.914Z,8.10
2022-11-17T00:04:22.075Z,8.10
2022-11-17T00:06:48.703Z,8.10
2022-11-17T00:09:17.402Z,8.10
2022-11-17T00:12:03.379Z,8.10
2022-11-17T00:14:32.937Z,8.10
2022-11-17T00:17:08.294Z,8.00
2022-11-17T00:19:53.689Z,8.00
2022-11-17T00:22:20.679Z,8.00
2022-11-17T00:24:48.393Z,8.00
2022-11-17T00:27:15.640Z,8.00
2022-11-17T00:29:42.335Z,8.00
2022-11-17T00:32:32.007Z,8.00
2022-11-17T00:34:58.674Z,7.90
2022-11-17T00:37:26.697Z,7.80
2022-11-17T00:39:57.766Z,7.90
2022-11-17T00:42:27.442Z,7.90
2022-11-17T00:44:54.090Z,7.90
2022-11-17T00:47:20.735Z,7.90
2022-11-17T00:49:47.313Z,7.80
2022-11-17T00:52:13.999Z,7.80
2022-11-17T00:54:40.621Z,7.80
2022-11-17T00:57:07.265Z,7.00
2022-11-17T00:59:33.877Z,7.80
2022-11-17T01:02:00.596Z,7.80
2022-11-17T01:04:27.265Z,7.80
2022-11-17T01:06:54.009Z,7.70
2022-11-17T01:09:22.694Z,7.90
2022-11-17T01:11:51.469Z,7.90
2022-11-17T01:14:29.422Z,7.90
2022-11-17T01:16:56.341Z,7.90
2022-11-17T01:19:24.274Z,8.00
2022-11-17T01:21:51.071Z,8.10
2022-11-17T01:24:17.860Z,8.10
2022-11-17T01:26:45.754Z,8.10
2022-11-17T01:29:14.715Z,8.00
2022-11-17T01:31:45.581Z,8.00
2022-11-17T01:34:13.081Z,8.00
2022-11-17T01:37:00.716Z,8.00
2022-11-17T01:39:29.364Z,8.00
2022-11-17T01:41:56.761Z,7.90
2022-11-17T01:45:10.071Z,7.90
2022-11-17T01:47:56.415Z,7.80
2022-11-17T01:50:40.005Z,7.70
2022-11-17T01:53:11.388Z,7.60
2022-11-17T01:55:43.985Z,7.50
2022-11-17T01:58:28.848Z,7.60
2022-11-17T02:00:55.839Z,7.60
2022-11-17T02:03:24.621Z,7.60
2022-11-17T02:06:13.502Z,7.60
2022-11-17T02:08:45.353Z,7.50
2022-11-17T02:11:15.138Z,7.60
2022-11-17T02:13:42.193Z,7.60
2022-11-17T02:16:16.598Z,7.60
2022-11-17T02:18:44.979Z,7.40
2022-11-17T02:21:26.704Z,8.00
2022-11-17T02:24:01.871Z,7.60
2022-11-17T02:27:06.055Z,7.60
2022-11-17T02:29:35.718Z,7.70
2022-11-17T02:32:09.455Z,7.50
2022-11-17T02:35:09.584Z,7.40
2022-11-17T02:38:01.743Z,7.50
2022-11-17T02:40:34.039Z,7.40
2022-11-17T02:43:22.368Z,7.40
2022-11-17T02:45:57.921Z,7.40
2022-11-17T02:48:29.487Z,7.30
2022-11-17T02:50:58.519Z,7.30
2022-11-17T02:53:27.040Z,7.30
2022-11-17T02:55:54.424Z,7.30
2022-11-17T02:58:21.381Z,7.20
2022-11-17T03:00:59.620Z,7.30
2022-11-17T03:03:56.463Z,7.20
2022-11-17T03:06:56.712Z,7.10
2022-11-17T03:09:37.899Z,7.20
2022-11-17T03:12:17.073Z,7.40
2022-11-17T03:14:53.222Z,7.30
2022-11-17T03:17:29.736Z,7.20
2022-11-17T03:20:12.457Z,7.30
2022-11-17T03:22:44.961Z,7.10
2022-11-17T03:25:16.232Z,7.20
2022-11-17T03:27:48.503Z,7.20
2022-11-17T03:30:16.984Z,7.20
2022-11-17T03:32:49.776Z,7.30
2022-11-17T03:35:21.119Z,7.20
2022-11-17T03:37:56.296Z,7.10
2022-11-17T03:40:26.932Z,7.20
2022-11-17T03:42:57.375Z,7.10
2022-11-17T03:45:29.933Z,7.00
2022-11-17T03:48:11.109Z,7.00
2022-11-17T03:50:45.658Z,7.10
2022-11-17T03:53:12.265Z,7.10
2022-11-17T03:55:55.628Z,7.20
2022-11-17T03:58:24.208Z,7.10
2022-11-17T04:00:53.309Z,7.00
2022-11-17T04:03:22.813Z,7.00
2022-11-17T04:05:49.456Z,7.00
2022-11-17T04:08:16.776Z,7.00
2022-11-17T04:11:01.869Z,7.00
2022-11-17T04:13:47.171Z,7.00
2022-11-17T04:16:13.797Z,7.00
2022-11-17T04:18:40.369Z,6.80
2022-11-17T04:21:07.008Z,6.70
2022-11-17T04:23:33.958Z,6.80
2022-11-17T04:26:19.469Z,6.70
2022-11-17T04:28:49.677Z,6.80
2022-11-17T04:31:24.288Z,6.80
2022-11-17T04:33:59.320Z,6.80
2022-11-17T04:36:28.815Z,6.90
2022-11-17T04:38:57.149Z,6.90
2022-11-17T04:41:44.290Z,6.90
2022-11-17T04:44:12.808Z,6.90
2022-11-17T04:46:40.619Z,6.90
2022-11-17T04:49:08.172Z,6.80
2022-11-17T04:51:35.302Z,5.90
2022-11-17T04:54:02.495Z,6.70
2022-11-17T04:56:29.565Z,6.80
2022-11-17T04:58:56.781Z,6.80
2022-11-17T05:01:24.885Z,6.80
2022-11-17T05:03:53.779Z,6.80
2022-11-17T05:06:25.977Z,6.90
2022-11-17T05:08:55.593Z,6.80
2022-11-17T05:11:43.310Z,6.80
2022-11-17T05:14:11.147Z,6.80
2022-11-17T05:16:56.696Z,6.80
2022-11-17T05:19:25.756Z,6.60
2022-11-17T05:21:52.796Z,6.80
2022-11-17T05:24:19.637Z,6.80
2022-11-17T05:26:47.950Z,6.80
2022-11-17T05:29:17.694Z,6.70
2022-11-17T05:31:45.098Z,6.70
2022-11-17T05:34:13.433Z,6.80
2022-11-17T05:36:41.349Z,6.90
2022-11-17T05:39:08.817Z,6.70
2022-11-17T05:41:37.095Z,6.50
2022-11-17T05:44:04.788Z,6.50
2022-11-17T05:46:31.492Z,6.60
2022-11-17T05:48:58.896Z,6.80
2022-11-17T05:51:25.706Z,6.70
2022-11-17T05:53:52.326Z,6.60
2022-11-17T05:56:38.555Z,6.70
2022-11-17T05:59:30.232Z,6.70
2022-11-17T06:02:10.032Z,6.60
2022-11-17T06:04:37.387Z,6.60
2022-11-17T06:07:04.095Z,6.60
2022-11-17T06:09:40.111Z,7.50
2022-11-17T06:12:06.842Z,6.50
2022-11-17T06:14:37.865Z,6.60
2022-11-17T06:17:21.826Z,6.60
2022-11-17T06:19:56.468Z,6.50
2022-11-17T06:22:26.389Z,6.50
2022-11-17T06:24:53.598Z,6.50
2022-11-17T06:27:20.318Z,6.60
2022-11-17T06:29:47.569Z,7.40
2022-11-17T06:32:15.526Z,6.50
2022-11-17T06:34:44.073Z,6.40
2022-11-17T06:37:11.492Z,6.40
2022-11-17T06:39:38.225Z,6.30
2022-11-17T06:42:04.853Z,6.40
2022-11-17T06:44:31.430Z,6.30
2022-11-17T06:46:58.064Z,6.30
2022-11-17T06:49:24.945Z,6.30
2022-11-17T06:51:52.286Z,6.40
2022-11-17T06:54:18.888Z,8.00
2022-11-17T06:56:45.481Z,9.30
2022-11-17T06:59:12.198Z,9.80
2022-11-17T07:01:39.075Z,9.10
2022-11-17T07:04:06.001Z,8.30
2022-11-17T07:06:36.738Z,7.80
2022-11-17T07:09:04.543Z,7.50
2022-11-17T07:11:33.828Z,7.30
2022-11-17T07:14:00.601Z,6.90
2022-11-17T07:16:27.206Z,6.80
2022-11-17T07:18:53.884Z,6.70
2022-11-17T07:21:22.346Z,6.70
2022-11-17T07:23:48.970Z,6.50
2022-11-17T07:26:15.570Z,6.30
2022-11-17T07:28:42.180Z,6.30
2022-11-17T07:31:09.592Z,6.30
2022-11-17T07:33:36.683Z,6.40
2022-11-17T07:36:14.599Z,6.40
2022-11-17T07:38:41.371Z,6.50
2022-11-17T07:41:10.192Z,6.50
2022-11-17T07:43:37.060Z,6.30
2022-11-17T07:46:12.988Z,6.40
2022-11-17T07:48:40.751Z,6.40
2022-11-17T07:51:07.393Z,6.40
2022-11-17T07:53:35.065Z,6.40
2022-11-17T07:56:06.883Z,6.40
2022-11-17T07:58:33.910Z,6.60
2022-11-17T08:01:09.219Z,6.50
2022-11-17T08:03:36.152Z,6.40
2022-11-17T08:06:04.387Z,6.40
2022-11-17T08:08:31.587Z,6.40
2022-11-17T08:11:02.991Z,6.50
2022-11-17T08:13:29.564Z,6.50
2022-11-17T08:15:57.303Z,6.40
2022-11-17T08:18:23.932Z,6.50
2022-11-17T08:20:50.602Z,6.40
2022-11-17T08:23:17.502Z,6.50
2022-11-17T08:25:44.304Z,6.60
2022-11-17T08:28:10.914Z,6.60
2022-11-17T08:30:37.509Z,6.60
2022-11-17T08:33:04.147Z,6.60
2022-11-17T08:35:37.113Z,6.50
2022-11-17T08:38:04.368Z,6.50
2022-11-17T08:40:31.121Z,6.40
2022-11-17T08:43:01.427Z,6.40
2022-11-17T08:45:28.922Z,6.50
2022-11-17T08:47:58.764Z,6.50
2022-11-17T08:50:25.522Z,6.60
2022-11-17T08:52:53.154Z,6.50
2022-11-17T08:55:19.881Z,6.70
2022-11-17T08:57:46.593Z,6.80
2022-11-17T09:00:13.733Z,6.70
2022-11-17T09:02:40.478Z,6.70
2022-11-17T09:05:07.660Z,6.60
2022-11-17T09:07:35.700Z,6.60
2022-11-17T09:10:04.730Z,6.70
2022-11-17T09:12:31.414Z,6.70
2022-11-17T09:14:58.376Z,6.60
2022-11-17T09:17:25.000Z,6.50
2022-11-17T09:19:51.687Z,6.60
2022-11-17T09:22:19.727Z,6.50
2022-11-17T09:24:46.343Z,6.40
2022-11-17T09:27:13.840Z,6.40
2022-11-17T09:29:40.570Z,6.90
2022-11-17T09:32:07.172Z,6.70
2022-11-17T09:34:33.792Z,6.70
2022-11-17T09:37:00.423Z,6.70
2022-11-17T09:39:27.187Z,6.70
2022-11-17T09:41:56.176Z,6.60
2022-11-17T09:44:34.242Z,6.60
2022-11-17T09:47:38.607Z,6.60
2022-11-17T09:50:22.195Z,6.50
2022-11-17T09:52:56.139Z,6.50
2022-11-17T09:55:45.380Z,6.40
2022-11-17T09:58:37.825Z,6.60
2022-11-17T10:01:05.233Z,6.50
2022-11-17T10:03:41.861Z,6.60
2022-11-17T10:06:18.858Z,6.50
2022-11-17T10:08:50.578Z,6.50
2022-11-17T10:11:43.918Z,6.60
2022-11-17T10:14:15.005Z,6.70
2022-11-17T10:16:53.371Z,6.60
2022-11-17T10:19:24.752Z,6.70
2022-11-17T10:22:03.625Z,6.80
2022-11-17T10:24:47.503Z,6.80
2022-11-17T10:27:22.128Z,6.70
2022-11-17T10:30:07.672Z,6.70
2022-11-17T10:32:48.274Z,6.70
2022-11-17T10:35:33.671Z,6.70
2022-11-17T10:38:19.056Z,6.80
2022-11-17T10:40:48.406Z,6.80
2022-11-17T10:43:17.061Z,6.80
2022-11-17T10:45:49.585Z,6.70
2022-11-17T10:48:22.981Z,6.70
2022-11-17T10:51:00.978Z,6.60
2022-11-17T10:53:45.223Z,6.60
2022-11-17T10:56:21.754Z,6.70
2022-11-17T10:59:18.037Z,6.60
2022-11-17T11:01:49.572Z,6.70
2022-11-17T11:04:30.188Z,6.70
2022-11-17T11:07:19.943Z,6.60
2022-11-17T11:10:07.048Z,6.60
2022-11-17T11:12:45.136Z,6.50
2022-11-17T11:15:25.178Z,6.60
2022-11-17T11:17:52.242Z,6.60
2022-11-17T11:20:28.368Z,6.60
2022-11-17T11:23:14.369Z,6.70
2022-11-17T11:26:08.119Z,6.60
2022-11-17T11:29:10.860Z,6.60
2022-11-17T11:31:46.818Z,6.60
2022-11-17T11:34:32.515Z,6.60
2022-11-17T11:37:09.429Z,6.60
2022-11-17T11:39:55.585Z,6.60
2022-11-17T11:42:44.893Z,6.60
2022-11-17T11:45:41.826Z,6.50
2022-11-17T11:48:24.630Z,6.60
2022-11-17T11:50:57.880Z,6.70
2022-11-17T11:53:26.654Z,6.70
2022-11-17T11:56:15.940Z,6.50
2022-11-17T11:58:54.069Z,6.60
2022-11-17T12:01:22.510Z,6.70
2022-11-17T12:04:07.047Z,6.70
2022-11-17T12:06:49.922Z,6.60
2022-11-17T12:09:31.690Z,6.70
2022-11-17T12:12:02.650Z,6.30
2022-11-17T12:14:35.296Z,6.30
2022-11-17T12:17:12.763Z,6.30
2022-11-17T12:19:49.842Z,6.40
2022-11-17T12:22:42.645Z,6.50
2022-11-17T12:25:18.745Z,6.50
2022-11-17T12:27:49.876Z,6.60
2022-11-17T12:30:51.628Z,6.50
2022-11-17T12:33:18.547Z,6.70
2022-11-17T12:35:45.277Z,6.60
2022-11-17T12:38:18.107Z,6.70
2022-11-17T12:40:47.111Z,6.70
2022-11-17T12:43:16.727Z,6.70
2022-11-17T12:45:55.319Z,6.60
2022-11-17T12:48:33.914Z,6.60
2022-11-17T12:51:10.857Z,6.60
2022-11-17T12:54:12.155Z,6.70
2022-11-17T12:57:10.483Z,6.50
2022-11-17T12:59:52.196Z,6.40
2022-11-17T13:02:46.048Z,6.40
2022-11-17T13:05:18.161Z,6.50
2022-11-17T13:07:44.789Z,6.60
2022-11-17T13:10:29.388Z,6.50
2022-11-17T13:13:22.436Z,6.40
2022-11-17T13:15:55.830Z,6.40
2022-11-17T13:18:41.509Z,6.40
2022-11-17T13:21:40.647Z,6.50
2022-11-17T13:24:08.541Z,6.60
2022-11-17T13:26:38.317Z,6.50
2022-11-17T13:29:13.282Z,6.60
2022-11-17T13:31:40.104Z,6.50
2022-11-17T13:34:13.407Z,6.50
2022-11-17T13:36:58.270Z,6.40
2022-11-17T13:39:27.703Z,6.50
2022-11-17T13:41:55.793Z,6.40
2022-11-17T13:44:25.109Z,6.30
2022-11-17T13:46:52.005Z,6.40
2022-11-17T13:49:37.301Z,6.40
2022-11-17T13:52:05.838Z,6.40
2022-11-17T13:54:33.006Z,6.20
2022-11-17T13:57:07.860Z,6.20
2022-11-17T13:59:36.963Z,6.30
2022-11-17T14:02:21.430Z,6.30
2022-11-17T14:05:06.725Z,6.20
2022-11-17T14:07:38.523Z,6.20
2022-11-17T14:10:20.158Z,6.30
2022-11-17T14:12:51.602Z,6.30
2022-11-17T14:15:21.230Z,6.30
2022-11-17T14:17:52.448Z,6.20
2022-11-17T14:20:24.973Z,6.30
2022-11-17T14:23:10.074Z,6.30
2022-11-17T14:25:40.294Z,6.40
2022-11-17T14:28:18.048Z,6.30
2022-11-17T14:30:48.257Z,6.20
2022-11-17T14:33:14.864Z,6.10
2022-11-17T14:35:42.815Z,6.20
2022-11-17T14:38:11.783Z,6.20
2022-11-17T14:40:38.368Z,6.20
2022-11-17T14:43:04.956Z,6.30
2022-11-17T14:45:35.145Z,6.40
2022-11-17T14:48:02.912Z,6.40
2022-11-17T14:50:29.521Z,6.60
2022-11-17T14:52:56.125Z,6.40
2022-11-17T14:55:22.732Z,6.40
2022-11-17T14:57:49.334Z,6.30
2022-11-17T15:00:20.517Z,6.30
2022-11-17T15:02:48.179Z,6.40
2022-11-17T15:05:15.263Z,6.40
2022-11-17T15:07:42.407Z,6.40
2022-11-17T15:10:09.918Z,6.50
2022-11-17T15:12:36.687Z,6.40
2022-11-17T15:15:04.984Z,6.40
2022-11-17T15:17:31.639Z,6.40
2022-11-17T15:19:58.263Z,6.50
2022-11-17T15:22:24.869Z,6.30
2022-11-17T15:24:51.793Z,6.30
2022-11-17T15:27:18.407Z,6.30
2022-11-17T15:29:45.023Z,6.30
2022-11-17T15:32:11.917Z,6.40
2022-11-17T15:34:38.542Z,6.30
2022-11-17T15:37:05.438Z,6.30
2022-11-17T15:39:32.158Z,6.20
2022-11-17T15:41:58.780Z,6.20
2022-11-17T15:44:25.452Z,6.30
2022-11-17T15:46:52.057Z,6.30
2022-11-17T15:49:18.953Z,6.20
2022-11-17T15:51:45.816Z,6.20
2022-11-17T15:54:18.455Z,6.20
2022-11-17T15:56:47.073Z,6.30
2022-11-17T15:59:14.359Z,6.30
2022-11-17T16:01:41.343Z,6.20
2022-11-17T16:04:10.666Z,6.30
2022-11-17T16:06:41.291Z,6.30
2022-11-17T16:09:08.934Z,6.20
2022-11-17T16:11:36.576Z,6.20
2022-11-17T16:14:04.504Z,6.30
2022-11-17T16:16:33.911Z,6.20
2022-11-17T16:19:00.748Z,6.20
2022-11-17T16:21:27.587Z,6.20
2022-11-17T16:23:56.191Z,6.20
2022-11-17T16:26:25.256Z,6.10
2022-11-17T16:28:59.478Z,6.00
2022-11-17T16:31:28.439Z,6.00
2022-11-17T16:33:59.482Z,6.00
2022-11-17T16:36:35.568Z,6.10
2022-11-17T16:39:04.857Z,6.10
2022-11-17T16:41:33.423Z,6.30
2022-11-17T16:44:01.053Z,6.20
2022-11-17T16:46:30.597Z,6.10
2022-11-17T16:49:01.592Z,6.10
2022-11-17T16:51:28.589Z,6.00
2022-11-17T16:54:06.577Z,6.00
2022-11-17T16:56:34.150Z,6.00
2022-11-17T16:59:01.133Z,6.00
2022-11-17T17:01:33.069Z,6.10
2022-11-17T17:04:02.235Z,6.10
2022-11-17T17:06:29.320Z,6.10
2022-11-17T17:09:01.402Z,6.10
2022-11-17T17:11:31.339Z,6.10
2022-11-17T17:14:00.079Z,6.10
2022-11-17T17:16:27.001Z,6.10
2022-11-17T17:19:01.656Z,6.20
2022-11-17T17:21:29.105Z,6.10
2022-11-17T17:23:55.797Z,6.00
2022-11-17T17:26:24.188Z,5.90
2022-11-17T17:28:53.792Z,6.00
2022-11-17T17:31:22.244Z,6.00
2022-11-17T17:33:50.677Z,6.00
2022-11-17T17:36:20.307Z,6.00
2022-11-17T17:38:51.809Z,6.10
2022-11-17T17:41:22.378Z,6.10
2022-11-17T17:43:55.632Z,6.10
2022-11-17T17:46:22.403Z,6.20
2022-11-17T17:48:49.367Z,6.10
2022-11-17T17:51:21.095Z,6.10
2022-11-17T17:53:50.448Z,6.10
2022-11-17T17:56:19.033Z,6.00
2022-11-17T17:58:48.544Z,6.00
2022-11-17T18:01:20.424Z,6.00
2022-11-17T18:03:48.768Z,6.10
2022-11-17T18:06:20.963Z,6.10
2022-11-17T18:08:48.513Z,6.20
2022-11-17T18:11:18.183Z,6.10
2022-11-17T18:13:46.628Z,5.90
2022-11-17T18:16:17.695Z,6.10
2022-11-17T18:18:47.504Z,6.00
2022-11-17T18:21:17.560Z,6.00
2022-11-17T18:23:45.005Z,6.10
2022-11-17T18:26:15.475Z,6.10
2022-11-17T18:28:43.942Z,6.10
2022-11-17T18:31:11.044Z,6.10
2022-11-17T18:33:37.870Z,5.90
2022-11-17T18:36:09.278Z,5.80
2022-11-17T18:38:37.209Z,6.00
2022-11-17T18:41:09.379Z,6.00
2022-11-17T18:43:36.767Z,6.00
2022-11-17T18:46:05.836Z,5.90
2022-11-17T18:48:37.812Z,5.90
2022-11-17T18:51:25.319Z,6.00
2022-11-17T18:53:54.032Z,5.90
2022-11-17T18:56:22.968Z,5.90
2022-11-17T18:58:49.994Z,5.90
2022-11-17T19:01:22.463Z,5.90
2022-11-17T19:03:52.140Z,5.90
2022-11-17T19:06:20.040Z,6.00
2022-11-17T19:08:48.217Z,6.00
2022-11-17T19:11:15.659Z,6.00
2022-11-17T19:13:43.036Z,6.00
2022-11-17T19:16:21.693Z,7.20
2022-11-17T19:18:50.791Z,8.80
2022-11-17T19:21:20.400Z,9.10
2022-11-17T19:23:51.877Z,8.30
2022-11-17T19:26:19.938Z,7.70
2022-11-17T19:28:46.820Z,7.20
2022-11-17T19:31:18.904Z,6.90
2022-11-17T19:33:46.868Z,6.70
2022-11-17T19:36:16.936Z,6.60
2022-11-17T19:38:45.458Z,6.50
2022-11-17T19:41:14.993Z,6.30
2022-11-17T19:43:45.330Z,6.10
2022-11-17T19:46:17.227Z,6.00
2022-11-17T19:48:44.736Z,6.10
2022-11-17T19:51:15.428Z,6.00
2022-11-17T19:53:42.115Z,5.90
2022-11-17T19:56:09.408Z,5.90
2022-11-17T19:58:36.181Z,6.00
2022-11-17T20:01:14.167Z,6.00
2022-11-17T20:03:41.919Z,5.90
2022-11-17T20:06:13.429Z,5.90
2022-11-17T20:08:40.371Z,5.80
2022-11-17T20:11:12.524Z,5.80
2022-11-17T20:13:40.104Z,5.90
2022-11-17T20:16:12.053Z,5.90
2022-11-17T20:18:39.332Z,5.80
2022-11-17T20:21:06.620Z,5.80
2022-11-17T20:23:34.836Z,5.70
2022-11-17T20:26:12.929Z,5.70
2022-11-17T20:28:39.875Z,5.70
2022-11-17T20:31:07.670Z,5.60
2022-11-17T20:33:34.492Z,5.70
2022-11-17T20:36:02.213Z,5.60
2022-11-17T20:38:28.850Z,5.30
2022-11-17T20:41:00.392Z,5.40
2022-11-17T20:43:27.812Z,5.40
2022-11-17T20:45:55.226Z,5.50
2022-11-17T20:48:22.480Z,5.50
2022-11-17T20:51:19.307Z,5.60
2022-11-17T20:53:46.174Z,5.60
2022-11-17T20:56:15.922Z,5.60
2022-11-17T20:58:44.475Z,5.50
2022-11-17T21:01:19.577Z,5.50
2022-11-17T21:03:46.830Z,5.60
2022-11-17T21:06:14.303Z,5.60
2022-11-17T21:08:42.297Z,5.60
2022-11-17T21:11:32.722Z,5.40
2022-11-17T21:13:59.712Z,5.40
2022-11-17T21:16:26.476Z,5.30
2022-11-17T21:18:53.119Z,5.40
2022-11-17T21:21:19.760Z,5.40
2022-11-17T21:23:46.704Z,5.60
2022-11-17T21:26:17.329Z,5.40
2022-11-17T21:28:44.140Z,5.40
2022-11-17T21:31:16.189Z,5.50
2022-11-17T21:33:43.719Z,5.40
2022-11-17T21:36:15.586Z,5.30
2022-11-17T21:38:43.613Z,5.30
2022-11-17T21:41:12.561Z,5.30
2022-11-17T21:43:41.350Z,5.40
2022-11-17T21:46:13.352Z,5.40
2022-11-17T21:48:40.820Z,5.30
2022-11-17T21:51:14.183Z,5.20
2022-11-17T21:53:40.821Z,5.40
2022-11-17T21:56:07.993Z,5.30
2022-11-17T21:58:34.876Z,5.40
2022-11-17T22:01:09.985Z,5.30
2022-11-17T22:03:37.652Z,5.40
2022-11-17T22:06:13.246Z,5.30
2022-11-17T22:08:41.970Z,5.30
2022-11-17T22:11:14.843Z,5.20
2022-11-17T22:13:42.282Z,5.20
2022-11-17T22:16:15.200Z,5.30
2022-11-17T22:18:41.872Z,5.30
2022-11-17T22:21:09.164Z,5.30
2022-11-17T22:23:35.849Z,5.30
2022-11-17T22:26:06.191Z,5.30
2022-11-17T22:28:33.093Z,5.30
2022-11-17T22:30:59.814Z,5.20
2022-11-17T22:33:26.575Z,5.30
2022-11-17T22:35:53.328Z,5.30
2022-11-17T22:38:19.938Z,5.30
2022-11-17T22:40:46.566Z,5.20
2022-11-17T22:43:15.557Z,5.10
2022-11-17T22:45:42.750Z,5.20
2022-11-17T22:48:09.569Z,5.10
2022-11-17T22:50:36.649Z,5.30
2022-11-17T22:53:03.404Z,5.20
2022-11-17T22:55:32.597Z,5.10
2022-11-17T22:57:59.257Z,5.10
2022-11-17T23:00:26.084Z,5.20
2022-11-17T23:02:52.714Z,5.20
2022-11-17T23:05:19.579Z,5.10
2022-11-17T23:07:46.252Z,5.20
2022-11-17T23:10:13.119Z,5.20
2022-11-17T23:12:40.284Z,5.10
2022-11-17T23:15:07.905Z,5.30
2022-11-17T23:17:34.858Z,5.20
2022-11-17T23:20:01.601Z,5.10
2022-11-17T23:22:28.215Z,4.90
2022-11-17T23:24:54.835Z,4.90
2022-11-17T23:27:21.598Z,5.00
2022-11-17T23:29:48.197Z,5.00
2022-11-17T23:32:14.774Z,5.00
2022-11-17T23:34:41.376Z,4.90
2022-11-17T23:37:08.223Z,4.90
2022-11-17T23:39:34.863Z,5.00
2022-11-17T23:42:01.708Z,5.00
2022-11-17T23:44:28.430Z,5.00
2022-11-17T23:46:55.235Z,5.00
2022-11-17T23:49:22.096Z,5.10
2022-11-17T23:51:48.759Z,5.00
2022-11-17T23:54:15.468Z,5.10
2022-11-17T23:56:42.167Z,5.00
2022-11-17T23:59:08.956Z,5.10
